sensor_id;sensor_type;location;lat;lon;timestamp;temperature;humidity
71551;DHT22;59367;48.414;9.872;2022-10-31T00:00:57;11.11161804;65.86151123
71551;DHT22;59367;48.414;9.872;2022-10-31T00:02:05;11.11161804;65.86151123
71551;DHT22;59367;48.414;9.872;2022-10-31T00:03:12;11.11161804;66.13464355
71551;DHT22;59367;48.414;9.872;2022-10-31T00:04:20;11.06889343;66.10717773
71551;DHT22;59367;48.414;9.872;2022-10-31T00:05:28;11.06889343;66.20483398
71551;DHT22;59367;48.414;9.872;2022-10-31T00:06:36;11.06889343;66.02935791
71551;DHT22;59367;48.414;9.872;2022-10-31T00:07:44;11.05554199;65.97900391
71551;DHT22;59367;48.414;9.872;2022-10-31T00:08:56;11.06889343;65.94238281
71551;DHT22;59367;48.414;9.872;2022-10-31T00:10:04;11.05554199;65.84320068
71551;DHT22;59367;48.414;9.872;2022-10-31T00:11:15;11.03952026;65.9072876
71551;DHT22;59367;48.414;9.872;2022-10-31T00:12:23;11.01281738;65.80657959
71551;DHT22;59367;48.414;9.872;2022-10-31T00:13:30;11.02616882;65.94390869
71551;DHT22;59367;48.414;9.872;2022-10-31T00:14:38;11.02616882;66.01257324
71551;DHT22;59367;48.414;9.872;2022-10-31T00:15:46;11.02616882;66.07055664
71551;DHT22;59367;48.414;9.872;2022-10-31T00:16:54;11.01281738;66.10870361
71551;DHT22;59367;48.414;9.872;2022-10-31T00:18:02;11.01281738;66.14837646
71551;DHT22;59367;48.414;9.872;2022-10-31T00:19:10;11.01281738;66.11785889
71551;DHT22;59367;48.414;9.872;2022-10-31T00:20:18;11.02616882;65.81878662
71551;DHT22;59367;48.414;9.872;2022-10-31T00:21:27;10.99946594;65.83251953
71551;DHT22;59367;48.414;9.872;2022-10-31T00:22:35;10.98344421;65.84777832
71551;DHT22;59367;48.414;9.872;2022-10-31T00:23:42;10.97009277;65.80047607
71551;DHT22;59367;48.414;9.872;2022-10-31T00:24:50;10.99946594;65.98968506
71551;DHT22;59367;48.414;9.872;2022-10-31T00:26:04;10.98344421;66.015625
71551;DHT22;59367;48.414;9.872;2022-10-31T00:27:12;10.98344421;65.94696045
71551;DHT22;59367;48.414;9.872;2022-10-31T00:28:19;10.97009277;65.8782959
71551;DHT22;59367;48.414;9.872;2022-10-31T00:29:27;10.9407196;65.8416748
71551;DHT22;59367;48.414;9.872;2022-10-31T00:30:35;10.91401672;65.88745117
71551;DHT22;59367;48.414;9.872;2022-10-31T00:31:43;10.9407196;65.87371826
71551;DHT22;59367;48.414;9.872;2022-10-31T00:32:50;10.90066528;65.73791504
71551;DHT22;59367;48.414;9.872;2022-10-31T00:33:58;10.91401672;65.79742432
71551;DHT22;59367;48.414;9.872;2022-10-31T00:35:07;10.88464355;66.02630615
71551;DHT22;59367;48.414;9.872;2022-10-31T00:36:18;10.90066528;66.01104736
71551;DHT22;59367;48.414;9.872;2022-10-31T00:37:26;10.88464355;66.09802246
71551;DHT22;59367;48.414;9.872;2022-10-31T00:38:34;10.90066528;66.08886719
71551;DHT22;59367;48.414;9.872;2022-10-31T00:39:42;10.8712883;66.2689209
71551;DHT22;59367;48.414;9.872;2022-10-31T00:40:50;10.8712883;66.40625
71551;DHT22;59367;48.414;9.872;2022-10-31T00:41:57;10.85793686;66.49169922
71551;DHT22;59367;48.414;9.872;2022-10-31T00:43:05;10.8712883;66.61071777
71551;DHT22;59367;48.414;9.872;2022-10-31T00:44:13;10.8712883;66.56188965
71551;DHT22;59367;48.414;9.872;2022-10-31T00:45:21;10.85793686;66.70379639
71551;DHT22;59367;48.414;9.872;2022-10-31T00:46:28;10.8712883;66.53289795
71551;DHT22;59367;48.414;9.872;2022-10-31T00:47:36;10.85793686;66.50085449
71551;DHT22;59367;48.414;9.872;2022-10-31T00:48:44;10.82856369;66.61224365
71551;DHT22;59367;48.414;9.872;2022-10-31T00:49:52;10.82856369;66.28112793
71551;DHT22;59367;48.414;9.872;2022-10-31T00:51:00;10.85793686;66.05377197
71551;DHT22;59367;48.414;9.872;2022-10-31T00:52:08;10.84458542;66.13922119
71551;DHT22;59367;48.414;9.872;2022-10-31T00:53:16;10.82856369;65.95153809
71551;DHT22;59367;48.414;9.872;2022-10-31T00:54:24;10.81521225;65.79284668
71551;DHT22;59367;48.414;9.872;2022-10-31T00:55:31;10.81521225;65.91033936
71551;DHT22;59367;48.414;9.872;2022-10-31T00:56:39;10.78583908;66.14837646
71551;DHT22;59367;48.414;9.872;2022-10-31T00:57:49;10.80186081;66.3269043
71551;DHT22;59367;48.414;9.872;2022-10-31T00:58:57;10.80186081;66.25823975
71551;DHT22;59367;48.414;9.872;2022-10-31T01:00:05;10.77248764;66.22314453
71551;DHT22;59367;48.414;9.872;2022-10-31T01:01:13;10.78583908;66.59698486
71551;DHT22;59367;48.414;9.872;2022-10-31T01:02:21;10.7591362;66.74804688
71551;DHT22;59367;48.414;9.872;2022-10-31T01:03:32;10.77248764;66.75872803
71551;DHT22;59367;48.414;9.872;2022-10-31T01:04:39;10.7591362;66.57104492
71551;DHT22;59367;48.414;9.872;2022-10-31T01:05:54;10.74578476;66.45202637
71551;DHT22;59367;48.414;9.872;2022-10-31T01:07:02;10.7591362;66.5802002
71551;DHT22;59367;48.414;9.872;2022-10-31T01:08:10;10.74578476;66.64733887
71551;DHT22;59367;48.414;9.872;2022-10-31T01:09:17;10.7591362;66.5145874
71551;DHT22;59367;48.414;9.872;2022-10-31T01:10:26;10.74578476;66.14990234
71551;DHT22;59367;48.414;9.872;2022-10-31T01:11:33;10.74578476;66.21856689
71551;DHT22;59367;48.414;9.872;2022-10-31T01:12:44;10.72976303;66.18652344
71551;DHT22;59367;48.414;9.872;2022-10-31T01:13:53;10.72976303;65.97137451
71551;DHT22;59367;48.414;9.872;2022-10-31T01:15:01;10.70306015;65.80200195
71551;DHT22;59367;48.414;9.872;2022-10-31T01:16:11;10.68703842;65.72265625
71551;DHT22;59367;48.414;9.872;2022-10-31T01:17:19;10.68703842;65.71044922
71551;DHT22;59367;48.414;9.872;2022-10-31T01:18:27;10.68703842;65.6829834
71551;DHT22;59367;48.414;9.872;2022-10-31T01:19:35;10.67368698;65.71960449
71551;DHT22;59367;48.414;9.872;2022-10-31T01:20:43;10.67368698;65.78826904
71551;DHT22;59367;48.414;9.872;2022-10-31T01:21:51;10.66033554;65.79589844
71551;DHT22;59367;48.414;9.872;2022-10-31T01:23:01;10.6469841;66.00799561
71551;DHT22;59367;48.414;9.872;2022-10-31T01:24:09;10.6469841;66.03546143
71551;DHT22;59367;48.414;9.872;2022-10-31T01:25:17;10.63096237;66.15905762
71551;DHT22;59367;48.414;9.872;2022-10-31T01:26:27;10.63096237;66.1895752
71551;DHT22;59367;48.414;9.872;2022-10-31T01:27:35;10.61760712;66.13922119
71551;DHT22;59367;48.414;9.872;2022-10-31T01:28:48;10.61760712;66.50695801
71551;DHT22;59367;48.414;9.872;2022-10-31T01:29:56;10.57488251;66.69464111
71551;DHT22;59367;48.414;9.872;2022-10-31T01:31:08;10.57488251;67.13409424
71551;DHT22;59367;48.414;9.872;2022-10-31T01:32:16;10.56153107;67.00592041
71551;DHT22;59367;48.414;9.872;2022-10-31T01:33:24;10.59090424;66.75720215
71551;DHT22;59367;48.414;9.872;2022-10-31T01:34:32;10.57488251;66.44287109
71551;DHT22;59367;48.414;9.872;2022-10-31T01:35:40;10.59090424;66.14379883
71551;DHT22;59367;48.414;9.872;2022-10-31T01:36:48;10.59090424;65.99884033
71551;DHT22;59367;48.414;9.872;2022-10-31T01:37:56;10.54817963;65.93322754
71551;DHT22;59367;48.414;9.872;2022-10-31T01:39:06;10.56153107;65.93475342
71551;DHT22;59367;48.414;9.872;2022-10-31T01:40:14;10.54817963;65.95153809
71551;DHT22;59367;48.414;9.872;2022-10-31T01:41:26;10.54817963;66.02020264
71551;DHT22;59367;48.414;9.872;2022-10-31T01:42:34;10.54817963;66.04919434
71551;DHT22;59367;48.414;9.872;2022-10-31T01:43:54;10.51613617;65.85998535
71551;DHT22;59367;48.414;9.872;2022-10-31T01:45:04;10.50278473;65.68145752
71551;DHT22;59367;48.414;9.872;2022-10-31T01:46:12;10.48943329;65.67230225
71551;DHT22;59367;48.414;9.872;2022-10-31T01:47:24;10.50278473;65.85693359
71551;DHT22;59367;48.414;9.872;2022-10-31T01:48:33;10.48943329;65.90270996
71551;DHT22;59367;48.414;9.872;2022-10-31T01:49:45;10.47341156;66.0949707
71551;DHT22;59367;48.414;9.872;2022-10-31T01:50:56;10.44670868;66.51916504
71551;DHT22;59367;48.414;9.872;2022-10-31T01:52:06;10.44670868;66.95556641
71551;DHT22;59367;48.414;9.872;2022-10-31T01:53:16;10.46006012;67.12341309
71551;DHT22;59367;48.414;9.872;2022-10-31T01:54:26;10.47341156;67.15698242
71551;DHT22;59367;48.414;9.872;2022-10-31T01:55:37;10.44670868;66.92657471
71551;DHT22;59367;48.414;9.872;2022-10-31T01:56:48;10.44670868;66.76177979
71551;DHT22;59367;48.414;9.872;2022-10-31T01:57:59;10.43335724;66.40014648
71551;DHT22;59367;48.414;9.872;2022-10-31T01:59:10;10.41733551;66.0949707
71551;DHT22;59367;48.414;9.872;2022-10-31T02:00:20;10.41733551;65.81420898
71551;DHT22;59367;48.414;9.872;2022-10-31T02:01:29;10.41733551;65.64941406
71551;DHT22;59367;48.414;9.872;2022-10-31T02:02:37;10.40398407;65.66467285
71551;DHT22;59367;48.414;9.872;2022-10-31T02:03:45;10.41733551;65.74707031
71551;DHT22;59367;48.414;9.872;2022-10-31T02:04:54;10.39063263;65.84777832
71551;DHT22;59367;48.414;9.872;2022-10-31T02:06:02;10.36125565;65.96069336
71551;DHT22;59367;48.414;9.872;2022-10-31T02:07:12;10.34790421;66.11328125
71551;DHT22;59367;48.414;9.872;2022-10-31T02:08:25;10.34790421;66.20025635
71551;DHT22;59367;48.414;9.872;2022-10-31T02:09:34;10.36125565;65.82336426
71551;DHT22;59367;48.414;9.872;2022-10-31T02:10:43;10.33455276;65.60516357
71551;DHT22;59367;48.414;9.872;2022-10-31T02:11:51;10.34790421;65.68603516
71551;DHT22;59367;48.414;9.872;2022-10-31T02:13:02;10.31853104;65.80657959
71551;DHT22;59367;48.414;9.872;2022-10-31T02:14:10;10.31853104;65.69976807
71551;DHT22;59367;48.414;9.872;2022-10-31T02:15:18;10.3051796;65.79589844
71551;DHT22;59367;48.414;9.872;2022-10-31T02:16:25;10.29182816;65.74554443
71551;DHT22;59367;48.414;9.872;2022-10-31T02:17:34;10.3051796;65.71807861
71551;DHT22;59367;48.414;9.872;2022-10-31T02:18:42;10.27847672;65.7043457
71551;DHT22;59367;48.414;9.872;2022-10-31T02:19:57;10.27847672;65.68603516
71551;DHT22;59367;48.414;9.872;2022-10-31T02:21:15;10.23575211;65.48156738
71551;DHT22;59367;48.414;9.872;2022-10-31T02:22:30;10.24910355;65.44494629
71551;DHT22;59367;48.414;9.872;2022-10-31T02:25:19;10.23575211;65.7333374
71551;DHT22;59367;48.414;9.872;2022-10-31T02:26:48;10.1930275;65.97137451
71551;DHT22;59367;48.414;9.872;2022-10-31T02:28:08;10.17967606;65.90118408
71551;DHT22;59367;48.414;9.872;2022-10-31T02:30:10;10.16365433;65.67382813
71551;DHT22;59367;48.414;9.872;2022-10-31T02:31:27;10.17967606;65.69671631
71551;DHT22;59367;48.414;9.872;2022-10-31T02:32:46;10.16365433;65.6829834
71551;DHT22;59367;48.414;9.872;2022-10-31T02:33:57;10.13695145;65.74707031
71551;DHT22;59367;48.414;9.872;2022-10-31T02:35:11;10.15030289;65.78826904
71551;DHT22;59367;48.414;9.872;2022-10-31T02:36:26;10.12359619;65.69671631
71551;DHT22;59367;48.414;9.872;2022-10-31T02:37:40;10.13695145;65.55328369
71551;DHT22;59367;48.414;9.872;2022-10-31T02:38:56;10.09422302;65.48919678
71551;DHT22;59367;48.414;9.872;2022-10-31T02:40:15;10.10757446;65.58685303
71551;DHT22;59367;48.414;9.872;2022-10-31T02:41:31;10.08087158;65.63110352
71551;DHT22;59367;48.414;9.872;2022-10-31T02:42:46;10.08087158;65.63110352
71551;DHT22;59367;48.414;9.872;2022-10-31T02:44:02;10.05149841;65.78216553
71551;DHT22;59367;48.414;9.872;2022-10-31T02:45:18;10.06484985;65.97900391
71551;DHT22;59367;48.414;9.872;2022-10-31T02:46:34;10.05149841;65.93780518
71551;DHT22;59367;48.414;9.872;2022-10-31T02:47:45;10.02479553;65.93322754
71551;DHT22;59367;48.414;9.872;2022-10-31T02:48:57;10.02479553;66.10717773
71551;DHT22;59367;48.414;9.872;2022-10-31T02:50:11;10.02479553;66.27349854
71551;DHT22;59367;48.414;9.872;2022-10-31T02:51:20;10.03814697;66.05224609
71551;DHT22;59367;48.414;9.872;2022-10-31T02:52:30;10.03814697;65.93475342
71551;DHT22;59367;48.414;9.872;2022-10-31T02:53:40;10.03814697;65.89660645
71551;DHT22;59367;48.414;9.872;2022-10-31T02:54:49;10.03814697;65.78826904
71551;DHT22;59367;48.414;9.872;2022-10-31T02:56:05;10.03814697;65.73181152
71551;DHT22;59367;48.414;9.872;2022-10-31T02:57:15;10.0087738;65.74554443
71551;DHT22;59367;48.414;9.872;2022-10-31T02:58:26;10.0087738;65.59906006
71551;DHT22;59367;48.414;9.872;2022-10-31T02:59:37;9.982070923;65.55480957
71551;DHT22;59367;48.414;9.872;2022-10-31T03:00:55;9.995422363;65.65551758
71551;DHT22;59367;48.414;9.872;2022-10-31T03:02:22;9.968719482;65.68145752
71551;DHT22;59367;48.414;9.872;2022-10-31T03:03:38;9.982070923;65.66314697
71551;DHT22;59367;48.414;9.872;2022-10-31T03:06:29;9.939346313;65.87982178
71551;DHT22;59367;48.414;9.872;2022-10-31T03:07:46;9.925994873;65.7699585
71551;DHT22;59367;48.414;9.872;2022-10-31T03:09:06;9.952697754;65.86151123
71551;DHT22;59367;48.414;9.872;2022-10-31T03:10:22;9.925994873;65.66467285
71551;DHT22;59367;48.414;9.872;2022-10-31T03:11:42;9.909973145;65.57312012
71551;DHT22;59367;48.414;9.872;2022-10-31T03:12:56;9.909973145;65.55328369
71551;DHT22;59367;48.414;9.872;2022-10-31T03:14:14;9.909973145;65.68145752
71551;DHT22;59367;48.414;9.872;2022-10-31T03:15:27;9.85389328;65.64178467
71551;DHT22;59367;48.414;9.872;2022-10-31T03:16:43;9.883270264;65.67687988
71551;DHT22;59367;48.414;9.872;2022-10-31T03:17:58;9.85389328;65.59448242
71551;DHT22;59367;48.414;9.872;2022-10-31T03:19:10;9.869915009;65.57617188
71551;DHT22;59367;48.414;9.872;2022-10-31T03:20:20;9.85389328;65.69061279
71551;DHT22;59367;48.414;9.872;2022-10-31T03:21:32;9.827190399;65.74554443
71551;DHT22;59367;48.414;9.872;2022-10-31T03:22:44;9.827190399;65.83251953
71551;DHT22;59367;48.414;9.872;2022-10-31T03:23:54;9.813838959;65.7913208
71551;DHT22;59367;48.414;9.872;2022-10-31T03:25:04;9.813838959;65.7699585
71551;DHT22;59367;48.414;9.872;2022-10-31T03:26:14;9.79781723;65.84625244
71551;DHT22;59367;48.414;9.872;2022-10-31T03:27:26;9.79781723;65.95306396
71551;DHT22;59367;48.414;9.872;2022-10-31T03:28:38;9.79781723;66.02020264
71551;DHT22;59367;48.414;9.872;2022-10-31T03:29:50;9.79781723;66.00189209
71551;DHT22;59367;48.414;9.872;2022-10-31T03:31:00;9.752422333;66.25518799
71551;DHT22;59367;48.414;9.872;2022-10-31T03:32:12;9.771114349;66.5512085
71551;DHT22;59367;48.414;9.872;2022-10-31T03:33:26;9.771114349;66.64733887
71551;DHT22;59367;48.414;9.872;2022-10-31T03:34:35;9.771114349;66.75415039
71551;DHT22;59367;48.414;9.872;2022-10-31T03:35:46;9.771114349;66.76330566
71551;DHT22;59367;48.414;9.872;2022-10-31T03:36:59;9.78446579;66.80297852
71551;DHT22;59367;48.414;9.872;2022-10-31T03:38:08;9.78446579;67.01812744
71551;DHT22;59367;48.414;9.872;2022-10-31T03:39:19;9.79781723;66.96014404
71551;DHT22;59367;48.414;9.872;2022-10-31T03:40:29;9.813838959;66.93572998
71551;DHT22;59367;48.414;9.872;2022-10-31T03:41:42;9.813838959;66.99523926
71551;DHT22;59367;48.414;9.872;2022-10-31T03:42:56;9.813838959;66.99523926
71551;DHT22;59367;48.414;9.872;2022-10-31T03:44:09;9.813838959;67.08221436
71551;DHT22;59367;48.414;9.872;2022-10-31T03:45:21;9.827190399;66.91894531
71551;DHT22;59367;48.414;9.872;2022-10-31T03:46:30;9.79781723;66.74804688
71551;DHT22;59367;48.414;9.872;2022-10-31T03:47:40;9.827190399;66.64733887
71551;DHT22;59367;48.414;9.872;2022-10-31T03:48:49;9.79781723;66.74804688
71551;DHT22;59367;48.414;9.872;2022-10-31T03:49:57;9.827190399;66.64733887
71551;DHT22;59367;48.414;9.872;2022-10-31T03:51:10;9.827190399;66.40472412
71551;DHT22;59367;48.414;9.872;2022-10-31T03:52:24;9.827190399;66.20025635
71551;DHT22;59367;48.414;9.872;2022-10-31T03:53:36;9.813838959;66.17736816
71551;DHT22;59367;48.414;9.872;2022-10-31T03:54:49;9.813838959;66.00341797
71551;DHT22;59367;48.414;9.872;2022-10-31T03:56:04;9.79781723;66.01104736
71551;DHT22;59367;48.414;9.872;2022-10-31T03:57:21;9.79781723;65.86608887
71551;DHT22;59367;48.414;9.872;2022-10-31T03:58:35;9.78446579;65.77453613
71551;DHT22;59367;48.414;9.872;2022-10-31T03:59:46;9.771114349;65.81115723
71551;DHT22;59367;48.414;9.872;2022-10-31T04:00:58;9.78446579;65.99884033
71551;DHT22;59367;48.414;9.872;2022-10-31T04:02:10;9.752422333;66.23687744
71551;DHT22;59367;48.414;9.872;2022-10-31T04:03:21;9.752422333;66.27655029
71551;DHT22;59367;48.414;9.872;2022-10-31T04:04:31;9.725719452;66.38793945
71551;DHT22;59367;48.414;9.872;2022-10-31T04:05:41;9.725719452;66.50543213
71551;DHT22;59367;48.414;9.872;2022-10-31T04:06:50;9.725719452;66.5802002
71551;DHT22;59367;48.414;9.872;2022-10-31T04:08:00;9.696346283;66.71142578
71551;DHT22;59367;48.414;9.872;2022-10-31T04:09:10;9.712368011;66.90826416
71551;DHT22;59367;48.414;9.872;2022-10-31T04:10:20;9.712368011;66.87774658
71551;DHT22;59367;48.414;9.872;2022-10-31T04:11:34;9.712368011;66.74499512
71551;DHT22;59367;48.414;9.872;2022-10-31T04:12:46;9.696346283;67.04101563
71551;DHT22;59367;48.414;9.872;2022-10-31T04:13:57;9.696346283;67.05169678
71551;DHT22;59367;48.414;9.872;2022-10-31T04:15:09;9.696346283;66.82739258
71551;DHT22;59367;48.414;9.872;2022-10-31T04:16:18;9.725719452;66.56188965
71551;DHT22;59367;48.414;9.872;2022-10-31T04:17:29;9.712368011;66.50238037
71551;DHT22;59367;48.414;9.872;2022-10-31T04:18:39;9.696346283;66.55578613
71551;DHT22;59367;48.414;9.872;2022-10-31T04:19:47;9.682994843;66.62445068
71551;DHT22;59367;48.414;9.872;2022-10-31T04:21:03;9.696346283;66.49780273
71551;DHT22;59367;48.414;9.872;2022-10-31T04:22:12;9.682994843;66.44744873
71551;DHT22;59367;48.414;9.872;2022-10-31T04:23:23;9.696346283;66.25518799
71551;DHT22;59367;48.414;9.872;2022-10-31T04:24:31;9.682994843;66.03088379
71551;DHT22;59367;48.414;9.872;2022-10-31T04:25:39;9.696346283;65.85998535
71551;DHT22;59367;48.414;9.872;2022-10-31T04:26:47;9.669643402;65.66925049
71551;DHT22;59367;48.414;9.872;2022-10-31T04:27:55;9.656291962;65.62805176
71551;DHT22;59367;48.414;9.872;2022-10-31T04:29:03;9.669643402;65.64025879
71551;DHT22;59367;48.414;9.872;2022-10-31T04:30:12;9.656291962;65.51208496
71551;DHT22;59367;48.414;9.872;2022-10-31T04:31:20;9.640270233;65.53039551
71551;DHT22;59367;48.414;9.872;2022-10-31T04:32:28;9.626918793;65.59448242
71551;DHT22;59367;48.414;9.872;2022-10-31T04:33:36;9.626918793;65.6829834
71551;DHT22;59367;48.414;9.872;2022-10-31T04:34:44;9.613563538;65.82489014
71551;DHT22;59367;48.414;9.872;2022-10-31T04:35:51;9.570838928;65.99273682
71551;DHT22;59367;48.414;9.872;2022-10-31T04:36:59;9.570838928;65.89660645
71551;DHT22;59367;48.414;9.872;2022-10-31T04:38:07;9.597541809;65.74554443
71551;DHT22;59367;48.414;9.872;2022-10-31T04:39:15;9.570838928;65.77911377
71551;DHT22;59367;48.414;9.872;2022-10-31T04:40:23;9.597541809;65.72723389
71551;DHT22;59367;48.414;9.872;2022-10-31T04:41:30;9.570838928;65.7409668
71551;DHT22;59367;48.414;9.872;2022-10-31T04:42:38;9.557487488;65.75927734
71551;DHT22;59367;48.414;9.872;2022-10-31T04:43:46;9.528114319;65.69519043
71551;DHT22;59367;48.414;9.872;2022-10-31T04:44:54;9.528114319;65.56854248
71551;DHT22;59367;48.414;9.872;2022-10-31T04:46:01;9.514762878;65.71960449
71551;DHT22;59367;48.414;9.872;2022-10-31T04:47:09;9.514762878;65.94390869
71551;DHT22;59367;48.414;9.872;2022-10-31T04:48:17;9.49874115;66.13616943
71551;DHT22;59367;48.414;9.872;2022-10-31T04:49:25;9.49874115;66.10717773
71551;DHT22;59367;48.414;9.872;2022-10-31T04:50:33;9.472038269;65.88897705
71551;DHT22;59367;48.414;9.872;2022-10-31T04:51:40;9.472038269;65.8706665
71551;DHT22;59367;48.414;9.872;2022-10-31T04:52:50;9.458686829;65.89660645
71551;DHT22;59367;48.414;9.872;2022-10-31T04:53:58;9.458686829;65.76080322
71551;DHT22;59367;48.414;9.872;2022-10-31T04:55:06;9.4426651;65.77758789
71551;DHT22;59367;48.414;9.872;2022-10-31T04:56:14;9.42931366;65.66772461
71551;DHT22;59367;48.414;9.872;2022-10-31T04:57:21;9.402610779;65.5960083
71551;DHT22;59367;48.414;9.872;2022-10-31T04:58:30;9.415962219;65.7043457
71551;DHT22;59367;48.414;9.872;2022-10-31T04:59:37;9.415962219;65.58685303
71551;DHT22;59367;48.414;9.872;2022-10-31T05:00:45;9.402610779;65.52734375
71551;DHT22;59367;48.414;9.872;2022-10-31T05:01:53;9.373233795;65.46630859
71551;DHT22;59367;48.414;9.872;2022-10-31T05:03:01;9.373233795;65.35797119
71551;DHT22;59367;48.414;9.872;2022-10-31T05:04:09;9.402610779;65.55786133
71551;DHT22;59367;48.414;9.872;2022-10-31T05:05:19;9.373233795;65.74554443
71551;DHT22;59367;48.414;9.872;2022-10-31T05:06:27;9.373233795;65.93017578
71551;DHT22;59367;48.414;9.872;2022-10-31T05:07:35;9.343860626;66.04309082
71551;DHT22;59367;48.414;9.872;2022-10-31T05:08:45;9.343860626;66.06140137
71551;DHT22;59367;48.414;9.872;2022-10-31T05:09:53;9.343860626;66.02172852
71551;DHT22;59367;48.414;9.872;2022-10-31T05:11:03;9.359882355;66.03546143
71551;DHT22;59367;48.414;9.872;2022-10-31T05:12:11;9.343860626;66.18652344
71551;DHT22;59367;48.414;9.872;2022-10-31T05:13:19;9.330509186;66.24450684
71551;DHT22;59367;48.414;9.872;2022-10-31T05:14:27;9.330509186;66.10717773
71551;DHT22;59367;48.414;9.872;2022-10-31T05:15:35;9.317157745;66.03851318
71551;DHT22;59367;48.414;9.872;2022-10-31T05:16:43;9.303806305;66.04309082
71551;DHT22;59367;48.414;9.872;2022-10-31T05:17:51;9.330509186;65.94238281
71551;DHT22;59367;48.414;9.872;2022-10-31T05:18:59;9.343860626;65.89660645
71551;DHT22;59367;48.414;9.872;2022-10-31T05:20:08;9.330509186;65.73791504
71551;DHT22;59367;48.414;9.872;2022-10-31T05:21:16;9.303806305;65.7333374
71551;DHT22;59367;48.414;9.872;2022-10-31T05:22:23;9.330509186;65.75927734
71551;DHT22;59367;48.414;9.872;2022-10-31T05:23:31;9.287784576;65.72265625
71551;DHT22;59367;48.414;9.872;2022-10-31T05:24:39;9.303806305;65.58074951
71551;DHT22;59367;48.414;9.872;2022-10-31T05:25:47;9.287784576;65.5670166
71551;DHT22;59367;48.414;9.872;2022-10-31T05:26:54;9.287784576;65.58685303
71551;DHT22;59367;48.414;9.872;2022-10-31T05:28:03;9.261081696;65.60058594
71551;DHT22;59367;48.414;9.872;2022-10-31T05:29:11;9.274433136;65.47698975
71551;DHT22;59367;48.414;9.872;2022-10-31T05:30:21;9.261081696;65.63110352
71551;DHT22;59367;48.414;9.872;2022-10-31T05:31:29;9.247730255;66.02630615
71551;DHT22;59367;48.414;9.872;2022-10-31T05:32:40;9.247730255;65.98815918
71551;DHT22;59367;48.414;9.872;2022-10-31T05:33:49;9.247730255;66.1026001
71551;DHT22;59367;48.414;9.872;2022-10-31T05:34:56;9.247730255;65.97595215
71551;DHT22;59367;48.414;9.872;2022-10-31T05:36:04;9.205005646;65.81573486
71551;DHT22;59367;48.414;9.872;2022-10-31T05:37:12;9.218357086;65.64178467
71551;DHT22;59367;48.414;9.872;2022-10-31T05:38:20;9.231708527;65.6829834
71551;DHT22;59367;48.414;9.872;2022-10-31T05:39:27;9.188983917;65.66772461
71551;DHT22;59367;48.414;9.872;2022-10-31T05:40:35;9.188983917;65.62805176
71551;DHT22;59367;48.414;9.872;2022-10-31T05:41:43;9.205005646;65.77758789
71551;DHT22;59367;48.414;9.872;2022-10-31T05:42:54;9.188983917;65.73638916
71551;DHT22;59367;48.414;9.872;2022-10-31T05:44:02;9.205005646;65.76538086
71551;DHT22;59367;48.414;9.872;2022-10-31T05:45:12;9.175632477;65.80047607
71551;DHT22;59367;48.414;9.872;2022-10-31T05:46:20;9.148929596;65.89355469
71551;DHT22;59367;48.414;9.872;2022-10-31T05:47:28;9.162281036;65.89660645
71551;DHT22;59367;48.414;9.872;2022-10-31T05:48:36;9.132907867;65.94696045
71551;DHT22;59367;48.414;9.872;2022-10-31T05:49:43;9.148929596;65.87371826
71551;DHT22;59367;48.414;9.872;2022-10-31T05:50:52;9.119552612;66.09039307
71551;DHT22;59367;48.414;9.872;2022-10-31T05:52:00;9.106201172;66.07971191
71551;DHT22;59367;48.414;9.872;2022-10-31T05:53:08;9.119552612;65.97442627
71551;DHT22;59367;48.414;9.872;2022-10-31T05:54:16;9.119552612;66.00341797
71551;DHT22;59367;48.414;9.872;2022-10-31T05:55:24;9.092849731;65.93017578
71551;DHT22;59367;48.414;9.872;2022-10-31T05:56:32;9.076828003;65.7333374
71551;DHT22;59367;48.414;9.872;2022-10-31T05:57:40;9.092849731;65.68145752
71551;DHT22;59367;48.414;9.872;2022-10-31T05:58:47;9.076828003;65.72418213
71551;DHT22;59367;48.414;9.872;2022-10-31T05:59:55;9.063476563;65.80963135
71551;DHT22;59367;48.414;9.872;2022-10-31T06:01:03;9.076828003;65.79284668
71551;DHT22;59367;48.414;9.872;2022-10-31T06:02:11;9.076828003;65.69671631
71551;DHT22;59367;48.414;9.872;2022-10-31T06:03:19;9.050125122;65.64178467
71551;DHT22;59367;48.414;9.872;2022-10-31T06:04:26;9.050125122;65.68145752
71551;DHT22;59367;48.414;9.872;2022-10-31T06:05:35;9.050125122;65.85693359
71551;DHT22;59367;48.414;9.872;2022-10-31T06:06:42;9.076828003;65.72418213
71551;DHT22;59367;48.414;9.872;2022-10-31T06:07:50;9.034103394;65.60058594
71551;DHT22;59367;48.414;9.872;2022-10-31T06:08:58;9.034103394;65.60058594
71551;DHT22;59367;48.414;9.872;2022-10-31T06:10:07;9.034103394;65.66925049
71551;DHT22;59367;48.414;9.872;2022-10-31T06:11:15;9.020751953;65.76385498
71551;DHT22;59367;48.414;9.872;2022-10-31T06:12:23;9.020751953;65.81420898
71551;DHT22;59367;48.414;9.872;2022-10-31T06:13:31;8.994049072;65.70129395
71551;DHT22;59367;48.414;9.872;2022-10-31T06:14:38;8.978027344;65.77758789
71551;DHT22;59367;48.414;9.872;2022-10-31T06:15:46;8.978027344;65.91186523
71551;DHT22;59367;48.414;9.872;2022-10-31T06:16:54;8.964675903;66.20025635